createdAt,value
2022-12-31T00:00:38.560Z,95909.81
2022-12-31T00:03:07.347Z,95916.53
2022-12-31T00:05:38.097Z,95922.06
2022-12-31T00:08:07.756Z,95933.50
2022-12-31T00:10:41.341Z,95925.63
2022-12-31T00:13:09.603Z,95921.66
2022-12-31T00:15:37.672Z,95922.84
2022-12-31T00:18:06.031Z,95920.88
2022-12-31T00:20:34.169Z,95923.25
2022-12-31T00:23:02.061Z,95920.09
2022-12-31T00:25:31.326Z,95923.25
2022-12-31T00:27:59.202Z,95924.81
2022-12-31T00:30:27.048Z,95933.50
2022-12-31T00:32:54.847Z,95937.84
2022-12-31T00:35:22.729Z,95939.84
2022-12-31T00:37:52.770Z,95937.44
2022-12-31T00:40:20.668Z,95945.34
2022-12-31T00:42:49.942Z,95940.22
2022-12-31T00:45:18.487Z,95955.63
2022-12-31T00:47:46.488Z,95951.66
2022-12-31T00:50:14.831Z,95960.38
2022-12-31T00:52:43.046Z,95968.66
2022-12-31T00:55:11.105Z,95967.47
2022-12-31T00:57:39.364Z,95980.09
2022-12-31T01:00:10.414Z,95972.22
2022-12-31T01:02:38.838Z,95979.34
2022-12-31T01:05:08.650Z,95978.53
2022-12-31T01:07:38.727Z,95977.75
2022-12-31T01:10:07.679Z,95981.69
2022-12-31T01:12:35.590Z,95981.31
2022-12-31T01:15:03.905Z,95984.88
2022-12-31T01:17:33.128Z,95990.78
2022-12-31T01:20:01.537Z,96000.25
2022-12-31T01:22:29.377Z,95997.50
2022-12-31T01:24:57.236Z,96008.16
2022-12-31T01:27:25.592Z,95995.16
2022-12-31T01:29:53.488Z,95994.34
2022-12-31T01:32:21.360Z,95999.06
2022-12-31T01:34:50.585Z,95988.81
2022-12-31T01:37:18.491Z,95983.28
2022-12-31T01:39:46.323Z,95986.84
2022-12-31T01:42:14.542Z,95983.28
2022-12-31T01:44:51.089Z,95982.50
2022-12-31T01:47:36.871Z,95971.41
2022-12-31T01:50:13.199Z,95990.78
2022-12-31T01:52:45.943Z,95986.41
2022-12-31T01:55:19.449Z,95995.53
2022-12-31T01:57:51.815Z,95988.38
2022-12-31T02:00:20.755Z,95994.69
2022-12-31T02:02:48.745Z,95991.56
2022-12-31T02:05:26.048Z,95997.88
2022-12-31T02:07:55.854Z,95986.44
2022-12-31T02:10:23.881Z,95987.97
2022-12-31T02:12:53.192Z,95997.06
2022-12-31T02:15:33.998Z,95996.66
2022-12-31T02:18:12.389Z,96002.22
2022-12-31T02:21:03.209Z,96010.91
2022-12-31T02:23:53.786Z,96007.34
2022-12-31T02:27:00.111Z,96015.66
2022-12-31T02:29:55.046Z,96009.34
2022-12-31T02:32:30.701Z,96011.69
2022-12-31T02:35:06.715Z,95993.88
2022-12-31T02:37:39.028Z,95995.47
2022-12-31T02:40:11.098Z,95995.84
2022-12-31T02:42:39.332Z,95993.09
2022-12-31T02:45:13.412Z,96006.94
2022-12-31T02:47:58.692Z,96021.97
2022-12-31T02:50:55.315Z,96024.34
2022-12-31T02:53:41.770Z,96027.50
2022-12-31T02:56:23.241Z,96031.44
2022-12-31T02:59:20.731Z,96018.03
2022-12-31T03:02:11.169Z,96014.88
2022-12-31T03:04:40.629Z,96020.41
2022-12-31T03:07:11.147Z,96022.75
2022-12-31T03:09:40.537Z,96019.59
2022-12-31T03:12:31.784Z,96023.16
2022-12-31T03:14:59.868Z,96021.97
2022-12-31T03:17:29.157Z,96026.69
2022-12-31T03:20:15.098Z,96029.09
2022-12-31T03:22:44.658Z,96031.47
2022-12-31T03:25:33.664Z,96028.28
2022-12-31T03:28:02.878Z,96026.72
2022-12-31T03:30:32.867Z,96032.25
2022-12-31T03:35:50.934Z,96038.19
2022-12-31T03:38:20.138Z,96039.75
2022-12-31T03:40:51.323Z,96054.00
2022-12-31T03:43:20.207Z,96044.13
2022-12-31T03:45:51.339Z,96045.72
2022-12-31T03:51:10.708Z,96048.88
2022-12-31T03:53:38.625Z,96040.94
2022-12-31T03:56:06.772Z,96037.41
2022-12-31T03:58:34.588Z,96046.09
2022-12-31T04:01:02.939Z,96035.81
2022-12-31T04:03:35.240Z,96034.63
2022-12-31T04:06:03.532Z,96039.38
2022-12-31T04:08:31.420Z,96022.38
2022-12-31T04:10:59.698Z,96025.16
2022-12-31T04:13:27.595Z,96034.66
2022-12-31T04:15:55.430Z,96041.34
2022-12-31T04:18:23.390Z,96058.72
2022-12-31T04:20:52.658Z,96038.19
2022-12-31T04:23:21.166Z,96051.25
2022-12-31T04:25:49.033Z,96056.75
2022-12-31T04:28:17.455Z,96060.72
2022-12-31T04:30:45.309Z,96062.69
2022-12-31T04:33:13.637Z,96062.28
2022-12-31T04:35:41.525Z,96055.19
2022-12-31T04:38:11.417Z,96058.75
2022-12-31T04:40:59.956Z,96068.63
2022-12-31T04:43:28.099Z,96058.34
2022-12-31T04:45:56.015Z,96070.22
2022-12-31T04:48:23.883Z,96061.91
2022-12-31T04:50:52.158Z,96065.47
2022-12-31T04:53:21.409Z,96080.50
2022-12-31T04:55:49.671Z,96081.69
2022-12-31T04:58:18.121Z,96077.31
2022-12-31T05:00:49.786Z,96076.53
2022-12-31T05:03:18.077Z,96091.53
2022-12-31T05:05:46.053Z,96087.63
2022-12-31T05:08:15.477Z,96087.63
2022-12-31T05:10:47.153Z,96086.44
2022-12-31T05:13:16.114Z,96087.59
2022-12-31T05:15:44.154Z,96097.09
2022-12-31T05:18:12.401Z,96091.16
2022-12-31T05:20:46.715Z,96075.34
2022-12-31T05:23:14.770Z,96097.09
2022-12-31T05:25:46.964Z,96077.31
2022-12-31T05:28:16.569Z,96076.09
2022-12-31T05:30:45.672Z,96067.00
2022-12-31T05:33:13.538Z,96077.66
2022-12-31T05:35:41.383Z,96086.38
2022-12-31T05:38:09.508Z,96082.03
2022-12-31T05:40:37.394Z,96095.84
2022-12-31T05:43:08.889Z,96093.09
2022-12-31T05:45:37.167Z,96101.44
2022-12-31T05:48:06.007Z,96105.75
2022-12-31T05:50:33.940Z,96105.38
2022-12-31T05:53:02.220Z,96092.69
2022-12-31T05:55:30.079Z,96118.41
2022-12-31T05:57:58.232Z,96126.72
2022-12-31T06:00:27.635Z,96124.75
2022-12-31T06:02:55.562Z,96131.06
2022-12-31T06:05:26.277Z,96128.69
2022-12-31T06:07:54.943Z,96132.25
2022-12-31T06:10:22.859Z,96119.97
2022-12-31T06:12:51.156Z,96130.66
2022-12-31T06:15:19.168Z,96116.78
2022-12-31T06:17:48.445Z,96125.88
2022-12-31T06:20:16.475Z,96124.69
2022-12-31T06:22:44.360Z,96131.00
2022-12-31T06:25:12.321Z,96134.94
2022-12-31T06:27:40.181Z,96143.66
2022-12-31T06:30:09.607Z,96147.56
2022-12-31T06:32:37.435Z,96158.25
2022-12-31T06:35:08.380Z,96150.72
2022-12-31T06:37:36.410Z,96145.19
2022-12-31T06:40:04.775Z,96147.13
2022-12-31T06:42:32.746Z,96158.63
2022-12-31T06:45:00.634Z,96154.66
2022-12-31T06:47:28.929Z,96149.09
2022-12-31T06:49:56.784Z,96153.84
2022-12-31T06:52:26.440Z,96160.19
2022-12-31T06:54:54.854Z,96160.19
2022-12-31T06:57:23.791Z,96165.75
2022-12-31T06:59:52.353Z,96171.34
2022-12-31T07:02:45.543Z,96178.06
2022-12-31T07:05:40.396Z,96184.81
2022-12-31T07:08:26.711Z,96176.13
2022-12-31T07:11:05.559Z,96178.88
2022-12-31T07:14:00.370Z,96186.78
2022-12-31T07:16:39.435Z,96180.84
2022-12-31T07:19:23.467Z,96184.44
2022-12-31T07:21:55.324Z,96187.19
2022-12-31T07:24:25.652Z,96182.03
2022-12-31T07:27:11.991Z,96193.94
2022-12-31T07:29:58.782Z,96201.03
2022-12-31T07:32:51.704Z,96199.84
2022-12-31T07:35:35.222Z,96201.41
2022-12-31T07:38:16.061Z,96203.44
2022-12-31T07:41:07.336Z,96209.75
2022-12-31T07:43:53.645Z,96218.06
2022-12-31T07:46:32.262Z,96207.00
2022-12-31T07:49:01.124Z,96208.19
2022-12-31T07:51:30.117Z,96214.53
2022-12-31T07:53:57.956Z,96221.22
2022-12-31T07:56:27.369Z,96214.09
2022-12-31T07:59:08.468Z,96222.78
2022-12-31T08:01:50.808Z,96224.38
2022-12-31T08:04:29.522Z,96225.97
2022-12-31T08:07:06.254Z,96231.50
2022-12-31T08:09:46.110Z,96221.63
2022-12-31T08:12:15.934Z,96237.06
2022-12-31T08:14:48.145Z,96241.41
2022-12-31T08:17:19.293Z,96248.13
2022-12-31T08:19:48.043Z,96254.06
2022-12-31T08:22:42.698Z,96254.06
2022-12-31T08:25:28.569Z,96254.47
2022-12-31T08:28:23.041Z,96252.09
2022-12-31T08:31:00.678Z,96259.63
2022-12-31T08:33:37.092Z,96258.41
2022-12-31T08:36:18.382Z,96256.81
2022-12-31T08:38:57.270Z,96265.94
2022-12-31T08:41:31.386Z,96258.00
2022-12-31T08:44:12.297Z,96264.69
2022-12-31T08:46:50.848Z,96265.88
2022-12-31T08:49:19.215Z,96250.41
2022-12-31T08:51:48.301Z,96266.63
2022-12-31T08:54:16.646Z,96253.53
2022-12-31T08:56:53.134Z,96263.09
2022-12-31T08:59:37.718Z,96269.81
2022-12-31T09:02:47.845Z,96266.22
2022-12-31T09:05:23.788Z,96266.22
2022-12-31T09:08:09.551Z,96263.84
2022-12-31T09:10:48.407Z,96266.59
2022-12-31T09:13:26.058Z,96274.06
2022-12-31T09:16:09.015Z,96275.25
2022-12-31T09:18:42.756Z,96276.06
2022-12-31T09:21:12.130Z,96272.50
2022-12-31T09:23:46.609Z,96275.63
2022-12-31T09:26:35.170Z,96270.09
2022-12-31T09:29:18.975Z,96273.22
2022-12-31T09:31:59.035Z,96270.84
2022-12-31T09:34:39.915Z,96277.97
2022-12-31T09:37:17.891Z,96276.75
2022-12-31T09:39:48.736Z,96287.44
2022-12-31T09:42:59.956Z,96279.81
2022-12-31T09:45:58.601Z,96293.72
2022-12-31T09:49:02.556Z,96289.31
2022-12-31T09:51:48.872Z,96304.03
2022-12-31T09:54:31.173Z,96312.69
2022-12-31T09:57:22.100Z,96313.91
2022-12-31T10:00:08.512Z,96318.22
2022-12-31T10:03:16.468Z,96315.84
2022-12-31T10:06:02.904Z,96303.53
2022-12-31T10:08:57.576Z,96295.19
2022-12-31T10:11:42.643Z,96305.81
2022-12-31T10:14:35.778Z,96313.31
2022-12-31T10:17:21.225Z,96293.50
2022-12-31T10:20:08.444Z,96303.81
2022-12-31T10:23:06.560Z,96307.75
2022-12-31T10:26:06.377Z,96300.56
2022-12-31T10:28:50.441Z,96303.69
2022-12-31T10:31:41.179Z,96292.94
2022-12-31T10:34:17.181Z,96289.31
2022-12-31T10:36:56.001Z,96297.97
2022-12-31T10:39:39.052Z,96306.00
2022-12-31T10:42:54.912Z,96294.88
2022-12-31T10:45:53.251Z,96289.28
2022-12-31T10:48:59.214Z,96293.63
2022-12-31T10:52:11.815Z,96286.06
2022-12-31T10:55:09.782Z,96285.56
2022-12-31T10:58:14.386Z,96288.66
2022-12-31T11:00:53.463Z,96290.56
2022-12-31T11:04:00.204Z,96281.06
2022-12-31T11:07:07.733Z,96277.03
2022-12-31T11:10:28.417Z,96273.78
2022-12-31T11:13:21.695Z,96275.25
2022-12-31T11:16:07.585Z,96270.38
2022-12-31T11:18:49.956Z,96268.78
2022-12-31T11:21:34.212Z,96270.59
2022-12-31T11:24:15.001Z,96271.34
2022-12-31T11:27:11.810Z,96263.78
2022-12-31T11:30:00.975Z,96257.78
2022-12-31T11:32:48.347Z,96255.78
2022-12-31T11:35:46.084Z,96256.47
2022-12-31T11:38:25.961Z,96248.38
2022-12-31T11:41:06.816Z,96244.28
2022-12-31T11:43:48.099Z,96250.06
2022-12-31T11:46:55.041Z,96248.66
2022-12-31T11:49:44.806Z,96237.53
2022-12-31T11:52:34.031Z,96249.28
2022-12-31T11:55:24.268Z,96236.94
2022-12-31T11:57:53.850Z,96240.38
2022-12-31T12:00:24.789Z,96232.47
2022-12-31T12:03:04.931Z,96223.78
2022-12-31T12:05:37.006Z,96231.59
2022-12-31T12:08:04.911Z,96231.28
2022-12-31T12:10:42.362Z,96234.13
2022-12-31T12:13:20.267Z,96225.78
2022-12-31T12:15:51.655Z,96233.50
2022-12-31T12:18:30.829Z,96234.34
2022-12-31T12:21:09.818Z,96239.09
2022-12-31T12:23:38.611Z,96243.88
2022-12-31T12:26:08.256Z,96242.97
2022-12-31T12:28:48.032Z,96236.38
2022-12-31T12:31:22.303Z,96233.25
2022-12-31T12:33:52.616Z,96232.88
2022-12-31T12:36:23.082Z,96225.38
2022-12-31T12:39:05.837Z,96231.25
2022-12-31T12:41:34.174Z,96221.72
2022-12-31T12:44:10.756Z,96221.78
2022-12-31T12:46:48.183Z,96229.19
2022-12-31T12:49:24.685Z,96223.72
2022-12-31T12:52:10.489Z,96220.63
2022-12-31T12:55:00.861Z,96226.38
2022-12-31T12:57:39.248Z,96218.38
2022-12-31T13:00:18.633Z,96229.16
2022-12-31T13:03:17.244Z,96224.66
2022-12-31T13:06:05.912Z,96229.63
2022-12-31T13:09:00.164Z,96232.06
2022-12-31T13:11:41.206Z,96233.59
2022-12-31T13:14:27.448Z,96227.63
2022-12-31T13:17:05.473Z,96222.53
2022-12-31T13:19:44.780Z,96218.59
2022-12-31T13:22:21.268Z,96214.69
2022-12-31T13:25:03.853Z,96207.09
2022-12-31T13:27:38.426Z,96204.00
2022-12-31T13:30:18.071Z,96204.47
2022-12-31T13:32:59.529Z,96202.84
2022-12-31T13:35:32.095Z,96199.31
2022-12-31T13:38:08.895Z,96204.09
2022-12-31T13:40:48.123Z,96202.94
2022-12-31T13:43:23.298Z,96195.38
2022-12-31T13:46:04.664Z,96210.50
2022-12-31T13:48:38.481Z,96200.25
2022-12-31T13:51:15.297Z,96199.16
2022-12-31T13:53:52.141Z,96200.78
2022-12-31T13:56:29.086Z,96203.19
2022-12-31T13:59:06.122Z,96203.97
2022-12-31T14:01:39.916Z,96210.50
2022-12-31T14:04:16.174Z,96222.44
2022-12-31T14:06:52.070Z,96218.41
2022-12-31T14:09:24.879Z,96209.63
2022-12-31T14:12:13.515Z,96202.06
2022-12-31T14:14:54.247Z,96207.25
2022-12-31T14:17:33.022Z,96209.78
2022-12-31T14:20:18.463Z,96215.25
2022-12-31T14:22:59.592Z,96216.97
2022-12-31T14:25:36.207Z,96218.56
2022-12-31T14:28:08.858Z,96222.56
2022-12-31T14:30:42.123Z,96231.00
2022-12-31T14:33:32.256Z,96228.63
2022-12-31T14:36:14.506Z,96229.81
2022-12-31T14:39:10.177Z,96246.59
2022-12-31T14:42:03.130Z,96234.25
2022-12-31T14:44:48.396Z,96230.34
2022-12-31T14:47:34.759Z,96230.28
2022-12-31T14:50:12.781Z,96224.31
2022-12-31T14:52:53.519Z,96220.25
2022-12-31T14:55:29.661Z,96231.47
2022-12-31T14:58:28.728Z,96241.50
2022-12-31T15:01:01.071Z,96242.81
2022-12-31T15:03:44.774Z,96234.81
2022-12-31T15:06:36.843Z,96243.56
2022-12-31T15:09:20.444Z,96236.00
2022-12-31T15:12:12.216Z,96246.00
2022-12-31T15:15:02.449Z,96231.78
2022-12-31T15:17:49.358Z,96238.19
2022-12-31T15:20:38.056Z,96235.81
2022-12-31T15:23:18.511Z,96227.94
2022-12-31T15:25:50.670Z,96227.56
2022-12-31T15:28:33.535Z,96232.03
2022-12-31T15:31:13.088Z,96229.72
2022-12-31T15:34:01.020Z,96228.97
2022-12-31T15:36:32.179Z,96230.56
2022-12-31T15:39:37.739Z,96226.66
2022-12-31T15:42:37.771Z,96236.53
2022-12-31T15:45:15.920Z,96235.78
2022-12-31T15:47:49.875Z,96233.00
2022-12-31T15:50:24.556Z,96228.28
2022-12-31T15:52:56.711Z,96238.59
2022-12-31T15:55:30.270Z,96236.19
2022-12-31T15:58:05.337Z,96226.25
2022-12-31T16:00:58.737Z,96233.44
2022-12-31T16:03:30.192Z,96232.31
2022-12-31T16:06:03.395Z,96235.94
2022-12-31T16:08:35.460Z,96240.31
2022-12-31T16:11:06.928Z,96232.72
2022-12-31T16:13:41.093Z,96231.53
2022-12-31T16:16:20.462Z,96237.88
2022-12-31T16:18:50.485Z,96242.66
2022-12-31T16:21:30.345Z,96244.28
2022-12-31T16:24:00.750Z,96233.94
2022-12-31T16:26:35.555Z,96229.56
2022-12-31T16:29:05.340Z,96232.75
2022-12-31T16:31:34.162Z,96238.75
2022-12-31T16:34:08.188Z,96231.69
2022-12-31T16:36:37.478Z,96241.56
2022-12-31T16:39:33.147Z,96226.88
2022-12-31T16:42:20.844Z,96238.78
2022-12-31T16:44:49.937Z,96244.78
2022-12-31T16:47:22.430Z,96250.41
2022-12-31T16:50:00.572Z,96245.31
2022-12-31T16:52:35.198Z,96250.91
2022-12-31T16:55:10.382Z,96241.81
2022-12-31T16:57:39.506Z,96245.03
2022-12-31T17:00:09.062Z,96245.91
2022-12-31T17:02:40.761Z,96249.84
2022-12-31T17:05:19.566Z,96251.09
2022-12-31T17:07:49.069Z,96242.75
2022-12-31T17:10:24.287Z,96243.16
2022-12-31T17:15:46.638Z,96247.16
2022-12-31T17:18:20.331Z,96254.28
2022-12-31T17:20:51.036Z,96257.03
2022-12-31T17:23:27.741Z,96253.84
2022-12-31T17:26:00.933Z,96251.03
2022-12-31T17:28:39.475Z,96262.16
2022-12-31T17:31:29.981Z,96254.97
2022-12-31T17:34:18.676Z,96263.28
2022-12-31T17:36:59.324Z,96258.56
2022-12-31T17:39:43.688Z,96255.38
2022-12-31T17:42:14.159Z,96258.13
2022-12-31T17:44:45.357Z,96262.53
2022-12-31T17:47:14.948Z,96264.13
2022-12-31T17:49:46.771Z,96267.66
2022-12-31T17:52:16.819Z,96275.19
2022-12-31T17:54:46.008Z,96278.38
2022-12-31T17:57:27.953Z,96287.88
2022-12-31T17:59:55.994Z,96273.22
2022-12-31T18:02:23.928Z,96271.66
2022-12-31T18:04:53.540Z,96277.66
2022-12-31T18:07:21.399Z,96278.44
2022-12-31T18:09:50.623Z,96285.25
2022-12-31T18:12:20.440Z,96278.88
2022-12-31T18:14:48.384Z,96288.44
2022-12-31T18:17:17.302Z,96293.59
2022-12-31T18:20:04.364Z,96291.63
2022-12-31T18:22:33.143Z,96286.44
2022-12-31T18:25:02.754Z,96289.59
2022-12-31T18:27:32.253Z,96294.41
2022-12-31T18:30:04.877Z,96296.03
2022-12-31T18:32:35.946Z,96284.97
2022-12-31T18:35:04.192Z,96288.94
2022-12-31T18:37:36.359Z,96287.75
2022-12-31T18:40:06.419Z,96287.34
2022-12-31T18:42:34.713Z,96295.28
2022-12-31T18:45:02.605Z,96298.84
2022-12-31T18:47:37.353Z,96307.16
2022-12-31T18:50:06.400Z,96305.16
2022-12-31T18:52:34.273Z,96315.06
2022-12-31T18:55:25.490Z,96299.59
2022-12-31T18:57:53.385Z,96304.38
2022-12-31T19:00:21.417Z,96301.97
2022-12-31T19:02:49.773Z,96304.38
2022-12-31T19:05:24.050Z,96311.13
2022-12-31T19:07:51.932Z,96316.25
2022-12-31T19:10:21.358Z,96319.41
2022-12-31T19:12:49.632Z,96317.03
2022-12-31T19:15:27.869Z,96319.38
2022-12-31T19:17:55.712Z,96321.78
2022-12-31T19:20:24.552Z,96323.38
2022-12-31T19:22:52.581Z,96330.88
2022-12-31T19:25:24.253Z,96330.50
2022-12-31T19:27:52.938Z,96327.31
2022-12-31T19:30:26.269Z,96335.22
2022-12-31T19:32:54.804Z,96336.41
2022-12-31T19:35:23.887Z,96332.03
2022-12-31T19:37:53.283Z,96326.09
2022-12-31T19:40:25.219Z,96332.03
2022-12-31T19:42:56.073Z,96322.53
2022-12-31T19:45:26.545Z,96334.44
2022-12-31T19:47:56.553Z,96332.84
2022-12-31T19:50:27.331Z,96333.63
2022-12-31T19:52:58.606Z,96336.78
2022-12-31T19:55:32.917Z,96342.34
2022-12-31T19:58:00.981Z,96356.63
2022-12-31T20:00:28.938Z,96343.56
2022-12-31T20:02:58.384Z,96347.13
2022-12-31T20:05:26.358Z,96351.47
2022-12-31T20:07:54.241Z,96351.91
2022-12-31T20:10:23.368Z,96353.47
2022-12-31T20:12:52.592Z,96345.94
2022-12-31T20:15:20.467Z,96335.66
2022-12-31T20:17:48.395Z,96343.59
2022-12-31T20:20:16.950Z,96351.13
2022-12-31T20:22:44.856Z,96349.53
2022-12-31T20:25:12.752Z,96345.56
2022-12-31T20:27:40.655Z,96344.41
2022-12-31T20:30:12.741Z,96343.19
2022-12-31T20:32:40.601Z,96348.34
2022-12-31T20:35:09.196Z,96336.84
2022-12-31T20:37:37.101Z,96339.22
2022-12-31T20:40:05.507Z,96351.09
2022-12-31T20:42:33.353Z,96355.09
2022-12-31T20:45:01.236Z,96352.72
2022-12-31T20:47:30.954Z,96339.63
2022-12-31T20:50:11.535Z,96342.03
2022-12-31T20:52:40.055Z,96334.09
2022-12-31T20:55:10.171Z,96343.16
2022-12-31T20:57:38.077Z,96343.97
2022-12-31T21:00:07.481Z,96350.31
2022-12-31T21:02:42.044Z,96348.34
2022-12-31T21:05:11.984Z,96342.78
2022-12-31T21:07:40.030Z,96327.34
2022-12-31T21:10:08.780Z,96336.06
2022-12-31T21:12:45.216Z,96334.88
2022-12-31T21:15:14.126Z,96334.06
2022-12-31T21:17:44.031Z,96335.28
2022-12-31T21:20:12.798Z,96326.56
2022-12-31T21:22:40.951Z,96328.13
2022-12-31T21:25:09.489Z,96327.34
2022-12-31T21:27:37.866Z,96325.75
2022-12-31T21:30:21.579Z,96328.13
2022-12-31T21:32:50.821Z,96336.03
2022-12-31T21:38:08.642Z,96334.06
2022-12-31T21:40:36.951Z,96331.31
2022-12-31T21:43:04.859Z,96333.66
2022-12-31T21:45:33.276Z,96332.50
2022-12-31T21:48:21.876Z,96340.81
2022-12-31T21:50:52.063Z,96335.22
2022-12-31T21:53:26.148Z,96336.81
2022-12-31T21:56:08.971Z,96339.19
2022-12-31T21:58:38.171Z,96351.88
2022-12-31T22:01:25.082Z,96357.78
2022-12-31T22:03:54.520Z,96360.56
2022-12-31T22:06:25.139Z,96372.44
2022-12-31T22:08:56.081Z,96370.88
2022-12-31T22:11:27.076Z,96371.66
2022-12-31T22:13:55.934Z,96374.00
2022-12-31T22:16:24.343Z,96377.22
2022-12-31T22:18:52.334Z,96379.59
2022-12-31T22:21:23.577Z,96382.38
2022-12-31T22:23:54.417Z,96383.56
2022-12-31T22:26:25.350Z,96376.44
2022-12-31T22:28:59.553Z,96382.38
2022-12-31T22:31:31.403Z,96376.81
2022-12-31T22:34:00.567Z,96382.78
2022-12-31T22:36:29.900Z,96383.97
2022-12-31T22:38:59.378Z,96375.63
2022-12-31T22:41:29.509Z,96378.03
2022-12-31T22:44:04.671Z,96379.63
2022-12-31T22:46:35.742Z,96385.19
2022-12-31T22:49:05.948Z,96393.09
2022-12-31T22:51:54.915Z,96395.88
2022-12-31T22:54:23.417Z,96393.09
2022-12-31T22:56:51.635Z,96387.97
2022-12-31T22:59:19.534Z,96394.31
2022-12-31T23:01:48.109Z,96396.28
2022-12-31T23:04:16.040Z,96395.47
2022-12-31T23:06:45.745Z,96403.00
2022-12-31T23:09:32.621Z,96394.31
2022-12-31T23:12:00.708Z,96406.56
2022-12-31T23:14:46.034Z,96412.53
2022-12-31T23:17:35.518Z,96412.94
2022-12-31T23:20:21.748Z,96412.91
2022-12-31T23:23:08.588Z,96420.84
2022-12-31T23:25:38.746Z,96421.59
2022-12-31T23:28:08.648Z,96423.19
2022-12-31T23:30:39.443Z,96415.25
2022-12-31T23:33:08.070Z,96422.41
2022-12-31T23:35:35.983Z,96429.50
2022-12-31T23:38:05.296Z,96430.69
2022-12-31T23:40:35.161Z,96424.72
2022-12-31T23:43:04.751Z,96417.63
2022-12-31T23:45:34.927Z,96427.53
2022-12-31T23:48:03.280Z,96425.13
2022-12-31T23:50:31.512Z,96425.53
2022-12-31T23:52:59.320Z,96418.38
2022-12-31T23:58:14.671Z,96417.88
